Time;durP1;ratioP1;P1;durP2;ratioP2;P2;SDS_P1;SDS_P2;PMS_P1;PMS_P2;Temp;Humidity;BMP_temperature;BMP_pressure;BME280_temperature;BME280_humidity;BME280_pressure;Samples;Min_cycle;Max_cycle;Signal;HPM_P1;HPM_P2
2022/07/08 00:00:40;;;;;;;5.47;2.47;;;;;;;;;;5019788;28;20801;-73
2022/07/08 00:03:05;;;;;;;12.82;2.80;;;;;;;;;;5025815;28;20034;-73
2022/07/08 00:05:30;;;;;;;8.50;2.28;;;;;;;;;;5028550;28;20022;-73
2022/07/08 00:07:55;;;;;;;3.40;2.08;;;;;;;;;;5023435;28;20025;-73
2022/07/08 00:10:21;;;;;;;8.73;2.20;;;;;;;;;;5024627;28;20353;-73
2022/07/08 00:12:46;;;;;;;8.50;2.42;;;;;;;;;;5021908;28;20274;-73
2022/07/08 00:15:11;;;;;;;7.70;2.08;;;;;;;;;;5019216;28;20062;-73
2022/07/08 00:17:37;;;;;;;7.18;1.95;;;;;;;;;;5024254;28;20487;-73
2022/07/08 00:20:03;;;;;;;12.65;2.92;;;;;;;;;;5024775;28;20057;-73
2022/07/08 00:22:28;;;;;;;9.60;2.38;;;;;;;;;;5018611;28;20423;-73
2022/07/08 00:24:53;;;;;;;9.45;2.33;;;;;;;;;;5018886;28;20030;-74
2022/07/08 00:27:19;;;;;;;7.43;2.30;;;;;;;;;;5012078;28;20021;-73
2022/07/08 00:29:44;;;;;;;5.75;2.25;;;;;;;;;;5017245;28;20266;-72
2022/07/08 00:32:09;;;;;;;5.38;2.60;;;;;;;;;;5023128;28;20025;-73
2022/07/08 00:34:34;;;;;;;11.98;2.67;;;;;;;;;;5020870;28;20032;-73
2022/07/08 00:37:00;;;;;;;13.35;2.65;;;;;;;;;;5024338;28;20026;-74
2022/07/08 00:39:25;;;;;;;11.55;2.63;;;;;;;;;;5019736;28;20113;-73
2022/07/08 00:41:50;;;;;;;10.75;2.40;;;;;;;;;;5022061;28;20084;-73
2022/07/08 00:44:15;;;;;;;5.60;2.40;;;;;;;;;;5021466;28;20033;-74
2022/07/08 00:46:41;;;;;;;6.50;2.37;;;;;;;;;;5016889;28;20741;-73
2022/07/08 00:49:06;;;;;;;15.43;2.35;;;;;;;;;;5016816;28;20274;-73
2022/07/08 00:51:33;;;;;;;10.38;2.40;;;;;;;;;;5020891;28;20146;-73
2022/07/08 00:53:58;;;;;;;9.27;2.15;;;;;;;;;;5020577;28;20022;-72
2022/07/08 00:56:25;;;;;;;4.77;2.07;;;;;;;;;;5023207;28;20435;-74
2022/07/08 00:58:50;;;;;;;4.65;2.13;;;;;;;;;;5016877;28;20637;-73
2022/07/08 01:01:16;;;;;;;7.77;2.70;;;;;;;;;;5022995;28;20033;-74
2022/07/08 01:03:43;;;;;;;11.65;3.22;;;;;;;;;;5021408;28;20293;-74
2022/07/08 01:06:08;;;;;;;10.30;2.53;;;;;;;;;;5020437;28;20539;-73
2022/07/08 01:08:33;;;;;;;11.40;2.80;;;;;;;;;;5018778;28;20026;-74
2022/07/08 01:10:59;;;;;;;5.93;2.13;;;;;;;;;;5029106;28;20112;-73
2022/07/08 01:13:25;;;;;;;12.00;3.08;;;;;;;;;;5018862;28;20021;-74
2022/07/08 01:15:50;;;;;;;9.70;2.97;;;;;;;;;;5018843;28;20452;-73
2022/07/08 01:18:22;;;;;;;6.30;2.37;;;;;;;;;;5019924;28;20373;-74
2022/07/08 01:20:48;;;;;;;9.98;2.83;;;;;;;;;;5019368;28;20280;-74
2022/07/08 01:23:13;;;;;;;8.73;2.40;;;;;;;;;;5019351;28;20029;-73
2022/07/08 01:25:38;;;;;;;7.93;2.67;;;;;;;;;;5021653;28;20029;-73
2022/07/08 01:28:04;;;;;;;11.57;3.05;;;;;;;;;;5015951;28;20262;-74
2022/07/08 01:30:29;;;;;;;11.02;2.58;;;;;;;;;;5018960;28;20063;-75
2022/07/08 01:32:54;;;;;;;15.53;4.93;;;;;;;;;;5021683;28;20017;-74
2022/07/08 01:35:19;;;;;;;6.55;2.45;;;;;;;;;;5020565;28;20391;-74
2022/07/08 01:37:44;;;;;;;14.17;3.20;;;;;;;;;;5018881;28;20068;-73
2022/07/08 01:40:10;;;;;;;11.73;2.95;;;;;;;;;;5020782;28;20026;-74
2022/07/08 01:42:35;;;;;;;10.13;2.90;;;;;;;;;;5015246;28;20037;-74
2022/07/08 01:45:00;;;;;;;6.83;2.70;;;;;;;;;;5017755;28;20029;-74
2022/07/08 01:47:25;;;;;;;10.77;2.80;;;;;;;;;;5017368;28;20283;-74
2022/07/08 01:49:51;;;;;;;13.53;2.57;;;;;;;;;;5021211;28;20264;-74
2022/07/08 01:52:16;;;;;;;7.57;2.43;;;;;;;;;;5018188;28;20710;-74
2022/07/08 01:54:41;;;;;;;5.13;2.20;;;;;;;;;;5020957;28;20302;-74
2022/07/08 01:57:15;;;;;;;5.78;2.88;;;;;;;;;;5018666;28;20025;-74
2022/07/08 01:59:41;;;;;;;12.80;2.70;;;;;;;;;;5019312;28;20014;-74
2022/07/08 02:02:07;;;;;;;9.98;3.10;;;;;;;;;;5016992;28;20025;-74
2022/07/08 02:04:32;;;;;;;7.97;2.60;;;;;;;;;;5020405;28;20041;-74
2022/07/08 02:06:57;;;;;;;7.07;2.40;;;;;;;;;;5016684;28;21879;-74
2022/07/08 02:09:22;;;;;;;7.50;3.17;;;;;;;;;;5018190;28;20053;-74
2022/07/08 02:14:32;;;;;;;7.82;3.58;;;;;;;;;;5015092;28;20028;-74
2022/07/08 02:16:57;;;;;;;5.18;2.60;;;;;;;;;;5017297;28;20033;-74
2022/07/08 02:19:22;;;;;;;8.70;2.70;;;;;;;;;;5017998;28;20484;-74
2022/07/08 02:21:47;;;;;;;6.60;2.70;;;;;;;;;;5021022;28;20298;-74
2022/07/08 02:24:13;;;;;;;9.10;2.65;;;;;;;;;;5017138;28;20281;-74
2022/07/08 02:26:39;;;;;;;5.93;2.60;;;;;;;;;;5016333;28;20124;-74
2022/07/08 02:29:04;;;;;;;4.47;2.42;;;;;;;;;;5018066;28;20025;-74
2022/07/08 02:31:30;;;;;;;12.40;2.60;;;;;;;;;;5019496;28;20017;-74
2022/07/08 02:33:55;;;;;;;9.13;3.07;;;;;;;;;;5016583;28;20040;-74
2022/07/08 02:36:20;;;;;;;11.27;2.58;;;;;;;;;;5019957;28;20282;-73
2022/07/08 02:38:45;;;;;;;7.28;2.70;;;;;;;;;;5017395;28;20411;-74
2022/07/08 02:41:10;;;;;;;6.50;3.00;;;;;;;;;;5017548;28;20388;-74
2022/07/08 02:43:35;;;;;;;9.73;2.90;;;;;;;;;;5019773;28;21701;-73
2022/07/08 02:46:01;;;;;;;8.13;3.30;;;;;;;;;;5017706;28;20292;-74
2022/07/08 02:48:26;;;;;;;9.87;3.00;;;;;;;;;;5017726;28;20278;-73
2022/07/08 02:50:51;;;;;;;8.37;2.73;;;;;;;;;;5020154;28;20487;-73
2022/07/08 02:53:16;;;;;;;5.97;2.72;;;;;;;;;;5015936;28;20033;-74
2022/07/08 02:55:41;;;;;;;7.30;3.20;;;;;;;;;;5017481;28;20033;-73
2022/07/08 02:58:06;;;;;;;5.50;2.80;;;;;;;;;;5018729;28;20385;-73
2022/07/08 03:00:33;;;;;;;10.18;2.88;;;;;;;;;;5020649;28;20332;-74
2022/07/08 03:02:58;;;;;;;6.82;2.72;;;;;;;;;;5026521;28;20381;-73
2022/07/08 03:05:23;;;;;;;5.15;2.75;;;;;;;;;;5023454;28;20033;-73
2022/07/08 03:07:48;;;;;;;3.05;2.75;;;;;;;;;;5018838;28;20186;-74
2022/07/08 03:10:14;;;;;;;6.55;2.63;;;;;;;;;;5016608;28;20186;-73
2022/07/08 03:12:39;;;;;;;6.60;2.90;;;;;;;;;;5020051;28;20068;-74
2022/07/08 03:15:04;;;;;;;8.73;2.80;;;;;;;;;;5014918;28;20332;-73
2022/07/08 03:17:29;;;;;;;6.93;2.75;;;;;;;;;;5016022;28;20033;-73
2022/07/08 03:19:54;;;;;;;4.40;2.75;;;;;;;;;;5015222;28;20057;-74
2022/07/08 03:22:19;;;;;;;8.67;2.60;;;;;;;;;;5021841;28;20030;-73
2022/07/08 03:24:45;;;;;;;10.43;3.97;;;;;;;;;;5014956;28;20743;-74
2022/07/08 03:27:10;;;;;;;7.53;3.17;;;;;;;;;;5018487;28;20037;-74
2022/07/08 03:29:35;;;;;;;7.60;3.50;;;;;;;;;;5014461;28;20095;-74
2022/07/08 03:32:00;;;;;;;11.88;3.08;;;;;;;;;;5015773;28;20377;-73
2022/07/08 03:34:26;;;;;;;6.70;3.28;;;;;;;;;;5015451;28;20099;-73
2022/07/08 03:36:51;;;;;;;6.63;3.25;;;;;;;;;;5020661;28;20352;-73
2022/07/08 03:39:16;;;;;;;7.97;3.85;;;;;;;;;;5017472;28;20029;-73
2022/07/08 03:41:41;;;;;;;10.02;3.20;;;;;;;;;;5014451;28;20029;-73
2022/07/08 03:44:07;;;;;;;7.03;3.45;;;;;;;;;;5013938;28;20033;-73
2022/07/08 03:46:32;;;;;;;5.57;3.17;;;;;;;;;;5016299;28;20071;-73
2022/07/08 03:48:57;;;;;;;13.15;3.70;;;;;;;;;;5014307;28;20082;-73
2022/07/08 03:51:23;;;;;;;7.03;2.90;;;;;;;;;;5018795;28;20021;-73
2022/07/08 03:53:48;;;;;;;6.05;2.83;;;;;;;;;;5018667;28;20017;-73
2022/07/08 03:56:14;;;;;;;9.63;2.97;;;;;;;;;;5019180;28;20503;-73
2022/07/08 03:58:39;;;;;;;5.18;3.30;;;;;;;;;;5017340;28;20124;-73
2022/07/08 04:01:05;;;;;;;11.37;4.30;;;;;;;;;;5022014;28;20065;-73
2022/07/08 04:03:30;;;;;;;5.10;2.70;;;;;;;;;;5023502;28;21215;-73
2022/07/08 04:05:56;;;;;;;12.32;4.18;;;;;;;;;;5019838;28;20534;-74
2022/07/08 04:08:21;;;;;;;13.95;3.35;;;;;;;;;;5021020;28;20025;-74
2022/07/08 04:10:46;;;;;;;7.22;3.60;;;;;;;;;;5022053;28;20033;-74
2022/07/08 04:13:11;;;;;;;8.27;3.63;;;;;;;;;;5019467;28;20021;-74
2022/07/08 04:15:37;;;;;;;9.73;4.38;;;;;;;;;;5019721;28;20546;-73
2022/07/08 04:18:02;;;;;;;21.07;5.13;;;;;;;;;;5022893;28;20507;-74
2022/07/08 04:20:28;;;;;;;15.05;3.83;;;;;;;;;;5022640;28;20025;-74
2022/07/08 04:22:53;;;;;;;9.18;4.03;;;;;;;;;;5025660;28;20235;-74
2022/07/08 04:25:18;;;;;;;10.77;4.23;;;;;;;;;;5034661;28;20018;-74
2022/07/08 04:27:43;;;;;;;11.52;4.28;;;;;;;;;;5022360;28;20316;-74
2022/07/08 04:30:09;;;;;;;7.85;3.88;;;;;;;;;;5024070;28;20029;-74
2022/07/08 04:32:34;;;;;;;9.68;3.88;;;;;;;;;;5022327;28;20112;-74
2022/07/08 04:34:59;;;;;;;15.20;4.10;;;;;;;;;;5025866;28;20063;-74
2022/07/08 04:37:25;;;;;;;9.23;4.57;;;;;;;;;;5022681;28;20026;-74
2022/07/08 04:39:51;;;;;;;13.00;4.50;;;;;;;;;;5025228;28;20304;-74
2022/07/08 04:42:16;;;;;;;12.95;4.55;;;;;;;;;;5021945;28;20333;-74
2022/07/08 04:44:41;;;;;;;10.40;4.32;;;;;;;;;;5020294;28;20022;-74
2022/07/08 04:47:06;;;;;;;11.53;4.30;;;;;;;;;;5021920;28;20033;-74
2022/07/08 04:49:31;;;;;;;14.10;4.78;;;;;;;;;;5021925;28;20365;-75
2022/07/08 04:51:57;;;;;;;11.70;4.73;;;;;;;;;;5025938;28;20037;-74
2022/07/08 04:54:22;;;;;;;16.20;6.57;;;;;;;;;;5023763;28;20324;-73
2022/07/08 04:56:47;;;;;;;10.52;4.28;;;;;;;;;;5020871;28;20270;-73
2022/07/08 04:59:12;;;;;;;8.07;4.67;;;;;;;;;;5021644;28;20033;-74
2022/07/08 05:01:37;;;;;;;8.90;4.50;;;;;;;;;;5016230;28;20578;-74
2022/07/08 05:04:02;;;;;;;8.82;4.32;;;;;;;;;;5025186;28;20390;-74
2022/07/08 05:06:27;;;;;;;10.30;4.55;;;;;;;;;;5024921;28;20357;-74
2022/07/08 05:08:53;;;;;;;13.88;3.95;;;;;;;;;;5028675;28;20025;-74
2022/07/08 05:11:18;;;;;;;9.47;4.50;;;;;;;;;;5023094;28;20064;-74
2022/07/08 05:13:43;;;;;;;10.97;5.07;;;;;;;;;;5026024;28;20633;-73
2022/07/08 05:16:08;;;;;;;15.95;6.05;;;;;;;;;;5022616;28;20075;-74
2022/07/08 05:18:33;;;;;;;7.88;3.80;;;;;;;;;;5023997;28;20527;-73
2022/07/08 05:20:59;;;;;;;10.50;4.63;;;;;;;;;;5025790;28;20032;-74
2022/07/08 05:23:24;;;;;;;8.70;3.65;;;;;;;;;;5019480;28;20559;-74
2022/07/08 05:25:49;;;;;;;9.63;3.90;;;;;;;;;;5023908;28;20026;-74
2022/07/08 05:28:14;;;;;;;8.00;3.80;;;;;;;;;;5021156;28;20765;-74
2022/07/08 05:30:39;;;;;;;10.03;4.27;;;;;;;;;;5024682;28;20068;-73
2022/07/08 05:33:04;;;;;;;13.47;4.40;;;;;;;;;;5018781;28;20836;-74
2022/07/08 05:35:30;;;;;;;7.30;3.67;;;;;;;;;;5021413;28;20274;-73
2022/07/08 05:37:55;;;;;;;9.50;4.00;;;;;;;;;;5019517;28;20387;-74
2022/07/08 05:40:20;;;;;;;8.95;3.90;;;;;;;;;;5025359;28;20029;-72
2022/07/08 05:42:45;;;;;;;9.30;3.50;;;;;;;;;;5019628;28;20495;-72
2022/07/08 05:45:11;;;;;;;11.88;4.32;;;;;;;;;;5018629;28;20290;-74
2022/07/08 05:47:36;;;;;;;10.98;4.35;;;;;;;;;;5022446;28;20049;-74
2022/07/08 05:50:02;;;;;;;14.43;4.10;;;;;;;;;;5022774;28;20522;-74
2022/07/08 05:52:27;;;;;;;11.50;4.80;;;;;;;;;;5021836;28;20044;-74
2022/07/08 05:54:53;;;;;;;7.93;3.50;;;;;;;;;;5020469;28;20044;-74
2022/07/08 05:57:18;;;;;;;14.77;4.22;;;;;;;;;;5020370;28;20357;-73
2022/07/08 05:59:44;;;;;;;14.03;3.87;;;;;;;;;;5022844;28;20035;-73
2022/07/08 06:02:10;;;;;;;12.70;4.55;;;;;;;;;;5019836;28;20270;-73
2022/07/08 06:04:35;;;;;;;7.53;3.90;;;;;;;;;;5020197;28;20040;-73
2022/07/08 06:07:00;;;;;;;12.27;4.22;;;;;;;;;;5022857;28;20022;-73
2022/07/08 06:09:25;;;;;;;10.20;2.93;;;;;;;;;;5024884;28;20030;-73
2022/07/08 06:11:51;;;;;;;8.13;2.75;;;;;;;;;;5021172;28;20274;-74
2022/07/08 06:14:16;;;;;;;9.65;3.60;;;;;;;;;;5024849;28;20488;-74
2022/07/08 06:16:41;;;;;;;7.65;3.42;;;;;;;;;;5017717;28;20057;-73
2022/07/08 06:19:06;;;;;;;16.40;3.35;;;;;;;;;;5021731;28;20029;-73
2022/07/08 06:21:32;;;;;;;12.65;3.38;;;;;;;;;;5025787;28;20029;-74
2022/07/08 06:23:57;;;;;;;13.73;3.77;;;;;;;;;;5027419;28;20029;-74
2022/07/08 06:26:22;;;;;;;11.13;3.03;;;;;;;;;;5025240;28;20260;-74
2022/07/08 06:28:47;;;;;;;10.13;3.00;;;;;;;;;;5023431;28;20018;-73
2022/07/08 06:31:12;;;;;;;15.20;3.20;;;;;;;;;;5026601;28;20506;-72
2022/07/08 06:33:37;;;;;;;11.03;2.80;;;;;;;;;;5027311;28;20266;-73
2022/07/08 06:36:03;;;;;;;8.33;2.63;;;;;;;;;;5022153;28;20022;-72
2022/07/08 06:38:28;;;;;;;8.52;2.50;;;;;;;;;;5026328;28;20026;-73
2022/07/08 06:40:53;;;;;;;10.23;2.90;;;;;;;;;;5027851;28;20045;-73
2022/07/08 06:43:18;;;;;;;8.13;3.40;;;;;;;;;;5026890;28;20274;-72
2022/07/08 06:45:44;;;;;;;10.00;2.93;;;;;;;;;;5029818;28;20036;-73
2022/07/08 06:48:09;;;;;;;12.85;3.22;;;;;;;;;;5023250;28;20258;-73
2022/07/08 06:50:35;;;;;;;9.73;2.50;;;;;;;;;;5021521;28;20022;-75
2022/07/08 06:53:00;;;;;;;14.50;3.07;;;;;;;;;;5023284;28;20306;-73
2022/07/08 06:55:25;;;;;;;10.00;3.10;;;;;;;;;;5022674;28;20301;-73
2022/07/08 06:57:50;;;;;;;13.37;3.20;;;;;;;;;;5021737;28;20266;-73
2022/07/08 07:00:15;;;;;;;10.13;2.70;;;;;;;;;;5021723;28;20814;-74
2022/07/08 07:02:41;;;;;;;15.00;2.92;;;;;;;;;;5022769;28;20057;-73
2022/07/08 07:05:07;;;;;;;10.70;2.47;;;;;;;;;;5020452;28;20025;-74
2022/07/08 07:07:32;;;;;;;17.15;3.30;;;;;;;;;;5018866;28;20751;-73
2022/07/08 07:09:57;;;;;;;11.00;3.00;;;;;;;;;;5019587;28;20034;-72
2022/07/08 07:12:23;;;;;;;8.50;3.35;;;;;;;;;;5019308;28;20033;-74
2022/07/08 07:14:48;;;;;;;6.93;2.90;;;;;;;;;;5017268;28;20083;-73
2022/07/08 07:17:16;;;;;;;8.52;3.00;;;;;;;;;;5012746;28;20018;-72
2022/07/08 07:19:41;;;;;;;9.32;2.22;;;;;;;;;;5015452;28;20032;-74
2022/07/08 07:22:06;;;;;;;9.77;2.53;;;;;;;;;;5016471;28;20021;-74
2022/07/08 07:24:32;;;;;;;12.40;2.70;;;;;;;;;;5017837;28;20298;-74
2022/07/08 07:26:57;;;;;;;12.70;2.60;;;;;;;;;;5021853;28;20035;-72
2022/07/08 07:29:22;;;;;;;12.53;2.90;;;;;;;;;;5016471;28;20320;-73
2022/07/08 07:31:47;;;;;;;11.25;2.80;;;;;;;;;;5018300;28;20137;-73
2022/07/08 07:34:13;;;;;;;11.52;2.90;;;;;;;;;;5018699;28;20968;-73
2022/07/08 07:36:38;;;;;;;17.15;3.13;;;;;;;;;;5021025;28;20415;-73
2022/07/08 07:39:03;;;;;;;12.45;2.70;;;;;;;;;;5024826;28;20055;-73
2022/07/08 07:41:28;;;;;;;10.95;2.60;;;;;;;;;;5018202;28;20029;-74
2022/07/08 07:43:54;;;;;;;7.07;2.37;;;;;;;;;;5015892;28;20033;-74
2022/07/08 07:46:19;;;;;;;13.07;3.17;;;;;;;;;;5015288;28;20274;-73
2022/07/08 07:48:45;;;;;;;10.65;3.15;;;;;;;;;;5020160;28;20426;-74
2022/07/08 07:51:10;;;;;;;8.60;2.60;;;;;;;;;;5020289;28;20017;-74
2022/07/08 07:53:35;;;;;;;11.02;2.78;;;;;;;;;;5018493;28;20702;-71
2022/07/08 07:56:00;;;;;;;13.32;3.03;;;;;;;;;;5017963;28;20060;-71
2022/07/08 07:58:26;;;;;;;7.57;2.58;;;;;;;;;;5015424;28;20048;-71
2022/07/08 08:00:51;;;;;;;7.77;2.03;;;;;;;;;;5015967;28;20026;-72
2022/07/08 08:03:17;;;;;;;14.43;3.05;;;;;;;;;;5016037;28;20025;-71
2022/07/08 08:05:42;;;;;;;10.52;2.15;;;;;;;;;;5018090;28;20623;-72
2022/07/08 08:08:08;;;;;;;7.75;2.22;;;;;;;;;;5019430;28;20014;-72
2022/07/08 08:10:33;;;;;;;8.48;2.10;;;;;;;;;;5017071;28;20093;-71
2022/07/08 08:12:58;;;;;;;9.15;2.45;;;;;;;;;;5020528;28;20082;-72
2022/07/08 08:15:26;;;;;;;11.15;2.13;;;;;;;;;;5019460;28;20106;-72
2022/07/08 08:17:52;;;;;;;12.85;3.00;;;;;;;;;;5018040;28;20116;-68
2022/07/08 08:20:17;;;;;;;9.63;2.20;;;;;;;;;;5015131;28;20715;-72
2022/07/08 08:22:42;;;;;;;10.23;2.05;;;;;;;;;;5016317;28;20049;-73
2022/07/08 08:25:07;;;;;;;11.13;1.90;;;;;;;;;;5018426;28;20036;-72
2022/07/08 08:27:33;;;;;;;11.25;2.50;;;;;;;;;;5033287;28;20259;-72
2022/07/08 08:29:58;;;;;;;9.63;2.00;;;;;;;;;;5019506;28;20026;-72
2022/07/08 08:32:23;;;;;;;7.23;1.77;;;;;;;;;;5017042;28;20029;-71
2022/07/08 08:34:49;;;;;;;10.73;2.50;;;;;;;;;;5019176;28;20034;-73
2022/07/08 08:37:14;;;;;;;13.73;2.37;;;;;;;;;;5017503;28;20077;-73
2022/07/08 08:39:40;;;;;;;8.60;1.88;;;;;;;;;;5016613;28;20048;-73
2022/07/08 08:42:06;;;;;;;9.85;1.90;;;;;;;;;;5017969;28;20049;-73
2022/07/08 08:44:31;;;;;;;6.03;1.50;;;;;;;;;;5012299;28;20504;-73
2022/07/08 08:46:57;;;;;;;11.70;2.00;;;;;;;;;;5019467;28;20106;-71
2022/07/08 08:49:23;;;;;;;5.35;1.60;;;;;;;;;;5018489;28;20025;-72
2022/07/08 08:51:49;;;;;;;5.90;1.90;;;;;;;;;;5024946;28;20018;-71
2022/07/08 08:54:15;;;;;;;12.73;1.77;;;;;;;;;;5016106;28;20241;-71
2022/07/08 08:56:40;;;;;;;5.88;1.70;;;;;;;;;;5017964;28;20017;-72
2022/07/08 08:59:06;;;;;;;7.35;1.95;;;;;;;;;;5016401;28;20033;-71
2022/07/08 09:01:32;;;;;;;8.43;1.83;;;;;;;;;;5019460;28;20041;-73
2022/07/08 09:03:58;;;;;;;5.85;1.52;;;;;;;;;;5020449;28;20021;-74
2022/07/08 09:06:24;;;;;;;10.95;1.65;;;;;;;;;;5021426;28;20618;-72
2022/07/08 09:08:49;;;;;;;6.03;1.87;;;;;;;;;;5024376;28;20021;-73
2022/07/08 09:11:17;;;;;;;6.82;1.80;;;;;;;;;;5023693;28;20292;-70
2022/07/08 09:13:42;;;;;;;6.90;1.80;;;;;;;;;;5014913;28;20037;-71
2022/07/08 09:16:07;;;;;;;8.93;1.97;;;;;;;;;;5015498;28;20122;-71
2022/07/08 09:18:35;;;;;;;7.70;1.90;;;;;;;;;;5019262;28;20438;-73
2022/07/08 09:21:00;;;;;;;5.18;1.60;;;;;;;;;;5022042;28;20033;-73
2022/07/08 09:23:27;;;;;;;8.00;1.92;;;;;;;;;;5019530;28;20030;-72
2022/07/08 09:25:53;;;;;;;5.32;1.67;;;;;;;;;;5016937;28;20391;-73
2022/07/08 09:28:38;;;;;;;8.45;1.92;;;;;;;;;;5016641;28;20033;-71
2022/07/08 09:31:07;;;;;;;5.40;1.60;;;;;;;;;;5019300;28;20029;-70
2022/07/08 09:33:32;;;;;;;5.72;1.67;;;;;;;;;;5015803;28;21460;-71
2022/07/08 09:36:00;;;;;;;8.65;1.50;;;;;;;;;;5016596;28;20025;-71
2022/07/08 09:38:26;;;;;;;9.30;1.90;;;;;;;;;;5025663;28;20018;-71
2022/07/08 09:40:55;;;;;;;6.50;1.85;;;;;;;;;;5020760;28;20016;-71
2022/07/08 09:43:21;;;;;;;7.45;2.08;;;;;;;;;;5012189;28;20032;-74
2022/07/08 09:45:46;;;;;;;6.43;2.00;;;;;;;;;;5013941;28;20014;-71
2022/07/08 09:48:11;;;;;;;9.03;1.93;;;;;;;;;;5023396;28;20032;-72
2022/07/08 09:50:38;;;;;;;9.80;2.53;;;;;;;;;;5023063;28;20506;-71
2022/07/08 09:53:15;;;;;;;7.50;2.13;;;;;;;;;;5013344;28;20267;-74
2022/07/08 09:55:41;;;;;;;10.18;2.05;;;;;;;;;;5013184;28;20025;-72
2022/07/08 09:58:08;;;;;;;5.82;1.75;;;;;;;;;;5019683;28;20040;-70
2022/07/08 10:00:33;;;;;;;6.32;1.85;;;;;;;;;;5017757;28;20025;-75
2022/07/08 10:02:59;;;;;;;7.70;2.22;;;;;;;;;;5016739;28;20087;-74
2022/07/08 10:05:25;;;;;;;7.43;2.13;;;;;;;;;;5015428;28;20030;-73
2022/07/08 10:07:50;;;;;;;9.73;2.20;;;;;;;;;;5022716;28;20487;-73
2022/07/08 10:10:15;;;;;;;6.32;1.80;;;;;;;;;;5017154;28;20217;-71
2022/07/08 10:12:41;;;;;;;6.22;1.92;;;;;;;;;;5012120;28;20025;-73
2022/07/08 10:15:07;;;;;;;6.88;2.03;;;;;;;;;;5017868;28;20408;-73
2022/07/08 10:17:38;;;;;;;8.55;1.92;;;;;;;;;;5015162;28;20031;-72
2022/07/08 10:20:04;;;;;;;12.23;2.70;;;;;;;;;;5022025;28;20067;-76
2022/07/08 10:22:31;;;;;;;7.85;2.47;;;;;;;;;;5017910;28;20038;-74
2022/07/08 10:24:56;;;;;;;4.60;1.92;;;;;;;;;;5016247;28;20021;-72
2022/07/08 10:27:23;;;;;;;5.57;2.28;;;;;;;;;;5018297;28;20026;-72
2022/07/08 10:29:49;;;;;;;11.05;2.92;;;;;;;;;;5025224;28;20014;-70
2022/07/08 10:32:27;;;;;;;9.75;2.60;;;;;;;;;;5017273;28;20207;-72
2022/07/08 10:35:09;;;;;;;10.93;3.20;;;;;;;;;;5016791;28;20092;-74
2022/07/08 10:37:47;;;;;;;8.27;2.10;;;;;;;;;;5020234;28;20046;-74
2022/07/08 10:40:13;;;;;;;10.50;2.58;;;;;;;;;;5021353;28;20706;-76
2022/07/08 10:42:41;;;;;;;11.35;2.50;;;;;;;;;;5022789;28;20017;-77
2022/07/08 10:45:14;;;;;;;8.95;2.60;;;;;;;;;;5017485;28;20025;-75
2022/07/08 10:47:39;;;;;;;14.25;3.13;;;;;;;;;;5022506;28;20026;-75
2022/07/08 10:50:05;;;;;;;10.83;3.43;;;;;;;;;;5021497;28;20026;-74
2022/07/08 10:52:32;;;;;;;12.07;2.97;;;;;;;;;;5018508;28;20402;-74
2022/07/08 10:55:13;;;;;;;10.85;2.50;;;;;;;;;;5016850;28;20026;-74
2022/07/08 10:57:38;;;;;;;11.68;2.83;;;;;;;;;;5017732;28;20025;-76
2022/07/08 11:00:13;;;;;;;11.93;2.97;;;;;;;;;;5019376;28;20017;-73
2022/07/08 11:02:40;;;;;;;9.35;3.17;;;;;;;;;;5022109;28;20254;-75
2022/07/08 11:05:05;;;;;;;10.10;3.40;;;;;;;;;;5020101;28;20025;-71
2022/07/08 11:07:30;;;;;;;10.40;3.05;;;;;;;;;;5012993;28;20021;-74
2022/07/08 11:10:09;;;;;;;14.70;3.33;;;;;;;;;;5015813;28;20420;-72
2022/07/08 11:12:39;;;;;;;10.65;3.42;;;;;;;;;;5016581;28;20033;-70
2022/07/08 11:15:16;;;;;;;9.90;3.33;;;;;;;;;;5017323;28;20246;-72
2022/07/08 11:17:42;;;;;;;9.07;2.83;;;;;;;;;;5022737;28;20013;-74
2022/07/08 11:20:09;;;;;;;11.98;3.28;;;;;;;;;;5017980;28;20041;-75
2022/07/08 11:22:35;;;;;;;12.27;3.17;;;;;;;;;;5018575;28;20021;-72
2022/07/08 11:25:00;;;;;;;10.48;3.50;;;;;;;;;;5019016;28;20056;-72
2022/07/08 11:27:26;;;;;;;13.43;2.95;;;;;;;;;;5017097;28;20021;-73
2022/07/08 11:29:52;;;;;;;11.02;3.10;;;;;;;;;;5018505;28;20112;-72
2022/07/08 11:32:19;;;;;;;14.07;3.75;;;;;;;;;;5021443;28;20032;-71
2022/07/08 11:34:48;;;;;;;12.27;3.20;;;;;;;;;;5024396;28;20503;-72
2022/07/08 11:37:13;;;;;;;10.77;3.17;;;;;;;;;;5032242;28;20037;-71
2022/07/08 11:39:39;;;;;;;11.05;3.10;;;;;;;;;;5022448;28;20546;-73
2022/07/08 11:42:04;;;;;;;11.13;3.03;;;;;;;;;;5022713;28;20033;-72
2022/07/08 11:44:29;;;;;;;7.88;3.10;;;;;;;;;;5014677;28;20388;-76
2022/07/08 11:46:55;;;;;;;12.37;2.77;;;;;;;;;;5027531;28;20025;-72
2022/07/08 11:49:21;;;;;;;15.98;4.07;;;;;;;;;;5022301;28;20060;-73
2022/07/08 11:51:47;;;;;;;8.07;3.55;;;;;;;;;;5023797;28;20026;-73
2022/07/08 11:54:12;;;;;;;12.88;4.00;;;;;;;;;;5024350;28;20033;-74
2022/07/08 11:56:37;;;;;;;13.07;3.28;;;;;;;;;;5024129;28;20104;-74
2022/07/08 11:59:03;;;;;;;7.97;3.33;;;;;;;;;;5024659;28;20029;-74
2022/07/08 12:01:28;;;;;;;8.20;3.63;;;;;;;;;;5020636;28;20341;-71
2022/07/08 12:03:53;;;;;;;10.03;3.27;;;;;;;;;;5019563;28;20040;-73
2022/07/08 12:06:25;;;;;;;10.98;3.17;;;;;;;;;;5017236;28;20404;-76
2022/07/08 12:08:50;;;;;;;7.43;2.83;;;;;;;;;;5020989;28;20032;-70
2022/07/08 12:11:18;;;;;;;8.90;2.87;;;;;;;;;;5026410;28;20026;-72
2022/07/08 12:13:44;;;;;;;13.80;3.40;;;;;;;;;;5019833;28;20057;-76
2022/07/08 12:16:09;;;;;;;11.30;3.33;;;;;;;;;;5026644;28;20033;-74
2022/07/08 12:18:36;;;;;;;8.23;3.53;;;;;;;;;;5019480;28;20026;-71
2022/07/08 12:21:16;;;;;;;11.20;3.33;;;;;;;;;;5024451;28;20037;-75
2022/07/08 12:23:44;;;;;;;14.45;3.67;;;;;;;;;;5025746;28;20021;-76
2022/07/08 12:26:10;;;;;;;11.13;3.22;;;;;;;;;;5025443;28;20097;-75
2022/07/08 12:28:35;;;;;;;19.02;3.28;;;;;;;;;;5019781;28;20064;-72
2022/07/08 12:31:00;;;;;;;10.48;3.03;;;;;;;;;;5020854;28;20033;-75
2022/07/08 12:33:29;;;;;;;11.15;3.20;;;;;;;;;;5022109;28;20113;-75
2022/07/08 12:35:54;;;;;;;13.23;3.45;;;;;;;;;;5024584;28;20064;-72
2022/07/08 12:38:23;;;;;;;9.13;3.40;;;;;;;;;;5025255;28;20017;-74
2022/07/08 12:40:48;;;;;;;10.20;3.15;;;;;;;;;;5021466;28;20108;-77
2022/07/08 12:43:14;;;;;;;14.80;3.57;;;;;;;;;;5032397;28;20447;-76
2022/07/08 12:45:40;;;;;;;12.05;3.45;;;;;;;;;;5024648;28;20794;-72
2022/07/08 12:48:06;;;;;;;12.38;3.13;;;;;;;;;;5021720;28;20033;-70
2022/07/08 12:50:32;;;;;;;11.68;3.55;;;;;;;;;;5024340;28;20025;-73
2022/07/08 12:52:57;;;;;;;8.48;3.38;;;;;;;;;;5026071;28;20373;-73
2022/07/08 12:55:23;;;;;;;8.82;3.20;;;;;;;;;;5030923;28;20030;-73
2022/07/08 12:57:48;;;;;;;12.20;3.78;;;;;;;;;;5026381;28;20022;-74
2022/07/08 13:00:14;;;;;;;12.30;4.05;;;;;;;;;;5024341;28;20039;-73
2022/07/08 13:02:39;;;;;;;9.95;3.13;;;;;;;;;;5022739;28;20044;-76
2022/07/08 13:05:05;;;;;;;11.05;3.20;;;;;;;;;;5024111;28;20423;-74
2022/07/08 13:07:30;;;;;;;10.38;4.10;;;;;;;;;;5025475;28;20375;-76
2022/07/08 13:09:56;;;;;;;10.80;3.63;;;;;;;;;;5020395;28;20025;-72
2022/07/08 13:12:21;;;;;;;7.97;3.20;;;;;;;;;;5023656;28;20258;-73
2022/07/08 13:14:47;;;;;;;13.10;3.42;;;;;;;;;;5019552;28;20032;-70
2022/07/08 13:17:12;;;;;;;9.10;3.58;;;;;;;;;;5023471;28;20124;-74
2022/07/08 13:19:37;;;;;;;9.70;3.30;;;;;;;;;;5028102;28;20029;-73
2022/07/08 13:22:03;;;;;;;8.90;3.60;;;;;;;;;;5021554;28;20439;-75
2022/07/08 13:24:28;;;;;;;10.27;3.40;;;;;;;;;;5027994;28;20025;-71
2022/07/08 13:26:53;;;;;;;8.25;3.15;;;;;;;;;;5022998;28;20063;-72
2022/07/08 13:29:18;;;;;;;8.43;2.88;;;;;;;;;;5021950;28;20026;-78
2022/07/08 13:31:44;;;;;;;9.50;3.47;;;;;;;;;;5023262;28;20559;-76
2022/07/08 13:34:09;;;;;;;7.30;3.90;;;;;;;;;;5024932;28;20120;-72
2022/07/08 13:36:34;;;;;;;10.75;3.63;;;;;;;;;;5022468;28;20044;-76
2022/07/08 13:39:00;;;;;;;12.67;3.60;;;;;;;;;;5023031;28;20046;-75
2022/07/08 13:41:29;;;;;;;11.40;3.57;;;;;;;;;;5017765;28;20022;-74
2022/07/08 13:43:55;;;;;;;9.80;3.13;;;;;;;;;;5014639;28;20021;-70
2022/07/08 13:46:20;;;;;;;11.02;3.63;;;;;;;;;;5017599;28;20025;-75
2022/07/08 13:48:45;;;;;;;9.23;3.20;;;;;;;;;;5018125;28;20437;-76
2022/07/08 13:51:10;;;;;;;7.70;3.07;;;;;;;;;;5026739;28;20025;-74
2022/07/08 13:53:35;;;;;;;10.55;3.63;;;;;;;;;;5026118;28;20021;-72
2022/07/08 13:56:01;;;;;;;11.00;3.63;;;;;;;;;;5030600;28;20504;-73
2022/07/08 13:58:26;;;;;;;11.63;3.30;;;;;;;;;;5038706;28;20374;-72
2022/07/08 14:00:51;;;;;;;13.33;3.63;;;;;;;;;;5035084;28;20470;-70
2022/07/08 14:03:16;;;;;;;8.37;3.07;;;;;;;;;;5028861;28;20021;-73
2022/07/08 14:05:41;;;;;;;13.60;4.00;;;;;;;;;;5025000;28;20460;-71
2022/07/08 14:08:06;;;;;;;10.27;3.00;;;;;;;;;;5021034;28;20037;-72
2022/07/08 14:10:32;;;;;;;9.83;3.13;;;;;;;;;;5020953;28;20049;-71
2022/07/08 14:12:57;;;;;;;10.45;3.53;;;;;;;;;;5017602;28;20014;-72
2022/07/08 14:15:22;;;;;;;6.27;2.83;;;;;;;;;;5019161;28;20080;-71
2022/07/08 14:17:47;;;;;;;11.47;3.30;;;;;;;;;;5023448;28;21227;-71
2022/07/08 14:20:13;;;;;;;15.73;3.60;;;;;;;;;;5021488;28;20033;-70
2022/07/08 14:22:38;;;;;;;14.82;3.83;;;;;;;;;;5017512;28;20060;-71
2022/07/08 14:25:04;;;;;;;11.85;3.90;;;;;;;;;;5017119;28;20084;-72
2022/07/08 14:27:30;;;;;;;10.40;3.88;;;;;;;;;;5020716;28;20076;-70
2022/07/08 14:29:55;;;;;;;11.70;3.47;;;;;;;;;;5027844;28;20377;-70